Time;durP1;ratioP1;P1;durP2;ratioP2;P2;SDS_P1;SDS_P2;PMS_P1;PMS_P2;Temp;Humidity;BMP_temperature;BMP_pressure;BME280_temperature;BME280_humidity;BME280_pressure;Samples;Min_cycle;Max_cycle;Signal;HPM_P1;HPM_P2
2022/10/29 00:01:54;;;;;;;16.15;6.00;;;;;;;22.17;100.00;98417.72;5025697;28;20056;-95
2022/10/29 00:04:20;;;;;;;22.10;6.57;;;;;;;22.87;100.00;98414.22;5030215;28;20041;-93
2022/10/29 00:06:47;;;;;;;22.70;7.32;;;;;;;22.70;100.00;98414.44;5027342;28;20473;-94
2022/10/29 00:09:15;;;;;;;16.83;6.07;;;;;;;23.39;100.00;98409.94;5024007;28;20049;-94
2022/10/29 00:11:43;;;;;;;20.20;7.50;;;;;;;23.28;100.00;98407.97;5026663;28;20737;-94
2022/10/29 00:14:11;;;;;;;19.27;6.70;;;;;;;23.59;100.00;98411.25;5022511;28;20087;-94
2022/10/29 00:16:38;;;;;;;17.77;6.53;;;;;;;22.99;100.00;98402.78;5029755;28;20037;-94
2022/10/29 00:19:05;;;;;;;24.00;7.38;;;;;;;23.25;100.00;98397.56;5025943;28;20084;-93
2022/10/29 00:21:31;;;;;;;18.48;6.65;;;;;;;23.49;100.00;98396.84;5025786;28;20136;-93
2022/10/29 00:23:57;;;;;;;23.40;6.97;;;;;;;24.33;100.00;98399.97;5025888;28;20021;-94
2022/10/29 00:26:23;;;;;;;16.70;6.45;;;;;;;23.55;100.00;98403.56;5026449;28;20514;-93
2022/10/29 00:28:53;;;;;;;20.67;6.68;;;;;;;23.96;100.00;98405.22;5026274;28;20112;-94
2022/10/29 00:31:23;;;;;;;22.38;7.13;;;;;;;22.88;100.00;98404.44;5042126;28;20606;-93
2022/10/29 00:33:50;;;;;;;22.08;8.20;;;;;;;23.30;100.00;98403.44;5027255;28;20025;-93
2022/10/29 00:36:22;;;;;;;25.63;7.45;;;;;;;23.16;100.00;98409.69;5030424;28;20404;-94
2022/10/29 00:38:48;;;;;;;23.88;7.57;;;;;;;23.09;100.00;98411.00;5024030;28;20421;-94
2022/10/29 00:41:17;;;;;;;21.05;7.68;;;;;;;23.25;100.00;98421.50;5027091;28;20036;-94
2022/10/29 00:43:47;;;;;;;23.55;8.65;;;;;;;23.79;100.00;98407.22;5031789;28;20039;-92
2022/10/29 00:46:23;;;;;;;21.65;7.43;;;;;;;23.42;100.00;98416.88;5031707;28;20041;-94
2022/10/29 00:48:53;;;;;;;22.10;7.45;;;;;;;23.46;100.00;98416.53;5028968;28;20124;-94
2022/10/29 00:51:20;;;;;;;18.45;8.07;;;;;;;22.97;100.00;98411.81;5024945;28;20030;-94
2022/10/29 00:53:51;;;;;;;19.67;7.88;;;;;;;22.61;100.00;98402.63;5020295;28;20079;-94
2022/10/29 00:56:17;;;;;;;24.00;7.95;;;;;;;22.72;100.00;98401.94;5027602;28;20013;-94
2022/10/29 00:58:44;;;;;;;18.38;7.38;;;;;;;22.30;100.00;98392.09;5027954;28;20040;-94
2022/10/29 01:01:10;;;;;;;24.02;8.15;;;;;;;22.10;100.00;98389.81;5040406;28;20123;-93
2022/10/29 01:03:36;;;;;;;19.27;7.93;;;;;;;22.66;100.00;98388.06;5017146;28;20072;-95
2022/10/29 01:06:02;;;;;;;22.20;7.63;;;;;;;23.44;100.00;98370.56;5035210;28;20048;-94
2022/10/29 01:08:28;;;;;;;24.65;7.15;;;;;;;24.00;100.00;98372.94;5023439;28;20061;-94
2022/10/29 01:10:53;;;;;;;20.98;6.85;;;;;;;23.06;100.00;98368.66;5025405;28;20037;-93
2022/10/29 01:13:34;;;;;;;24.00;7.85;;;;;;;22.40;100.00;98381.78;5021130;28;20129;-93
2022/10/29 01:16:14;;;;;;;22.50;7.50;;;;;;;22.44;100.00;98371.81;5021670;28;20021;-92
2022/10/29 01:18:53;;;;;;;25.02;7.57;;;;;;;23.17;100.00;98365.28;5019180;28;20036;-93
2022/10/29 01:21:39;;;;;;;21.50;6.47;;;;;;;22.83;100.00;98362.19;5023943;28;20659;-92
2022/10/29 01:24:23;;;;;;;21.08;7.22;;;;;;;22.15;100.00;98369.16;5023481;28;20057;-93
2022/10/29 01:26:54;;;;;;;21.77;7.95;;;;;;;22.03;100.00;98362.78;5019881;28;20040;-91
2022/10/29 01:30:00;;;;;;;22.85;7.72;;;;;;;21.77;100.00;98359.97;5019127;28;20726;-93
2022/10/29 01:33:06;;;;;;;19.20;7.15;;;;;;;22.83;100.00;98351.56;5022627;28;20105;-93
2022/10/29 01:35:57;;;;;;;22.35;7.20;;;;;;;22.48;100.00;98344.94;5011595;28;20037;-93
2022/10/29 01:38:25;;;;;;;26.15;7.13;;;;;;;22.65;100.00;98338.50;5025208;28;20112;-91
2022/10/29 01:41:16;;;;;;;19.85;6.93;;;;;;;22.32;100.00;98347.69;5019104;28;20036;-92
2022/10/29 01:44:21;;;;;;;17.35;6.88;;;;;;;23.39;100.00;98359.38;5024110;28;20042;-93
2022/10/29 01:46:54;;;;;;;23.20;7.03;;;;;;;23.23;100.00;98372.00;5038481;28;20025;-92
2022/10/29 01:49:27;;;;;;;19.40;6.05;;;;;;;23.25;100.00;98368.28;5039695;28;20317;-93
2022/10/29 01:51:54;;;;;;;21.40;5.80;;;;;;;22.70;100.00;98369.25;5017232;28;20025;-93
2022/10/29 01:54:20;;;;;;;21.25;5.70;;;;;;;22.09;100.00;98358.94;5017579;28;20271;-93
2022/10/29 01:56:58;;;;;;;17.75;5.70;;;;;;;22.81;100.00;98349.00;5031137;28;20481;-93
2022/10/29 01:59:31;;;;;;;24.67;5.72;;;;;;;22.59;100.00;98346.91;5017716;28;20080;-93
2022/10/29 02:02:30;;;;;;;23.77;5.40;;;;;;;22.19;100.00;98344.13;5014632;22;20045;-93
2022/10/29 02:05:21;;;;;;;21.30;6.28;;;;;;;22.52;100.00;98342.94;4980005;28;20975;-94
2022/10/29 02:07:53;;;;;;;24.38;5.80;;;;;;;22.93;100.00;98342.00;5002922;28;20026;-94
2022/10/29 02:10:37;;;;;;;16.65;6.05;;;;;;;21.98;100.00;98347.16;5021557;28;20026;-93
2022/10/29 02:13:03;;;;;;;19.52;6.15;;;;;;;22.60;100.00;98351.28;5019428;28;20017;-95
2022/10/29 02:15:32;;;;;;;20.52;5.97;;;;;;;21.99;100.00;98362.16;5008982;28;20065;-94
2022/10/29 02:17:59;;;;;;;18.75;6.15;;;;;;;22.98;100.00;98355.03;5009794;28;20137;-94
2022/10/29 02:20:25;;;;;;;18.73;7.13;;;;;;;22.64;100.00;98358.09;5008103;28;20125;-94
2022/10/29 02:22:52;;;;;;;20.80;7.25;;;;;;;22.60;100.00;98364.56;5004831;28;20482;-94
2022/10/29 02:25:17;;;;;;;19.88;7.07;;;;;;;22.71;100.00;98365.66;5012726;28;20026;-94
2022/10/29 02:27:43;;;;;;;20.90;7.85;;;;;;;23.22;100.00;98362.34;5009598;28;20109;-94
2022/10/29 02:30:09;;;;;;;24.65;7.63;;;;;;;22.43;100.00;98355.00;5013052;28;20034;-96
2022/10/29 02:32:34;;;;;;;22.08;8.25;;;;;;;22.96;100.00;98338.31;5012523;28;20041;-94
2022/10/29 02:35:00;;;;;;;23.42;8.40;;;;;;;23.63;100.00;98340.00;5023171;28;20026;-95
2022/10/29 02:37:26;;;;;;;20.80;7.88;;;;;;;24.66;100.00;98337.19;5011360;28;20069;-94
2022/10/29 02:39:51;;;;;;;26.35;7.60;;;;;;;23.97;100.00;98333.19;5027471;28;20037;-94
2022/10/29 02:42:17;;;;;;;25.35;8.02;;;;;;;24.59;100.00;98326.09;5011123;28;20033;-94
2022/10/29 02:44:42;;;;;;;19.25;6.97;;;;;;;24.45;100.00;98340.44;5010319;28;20033;-95
2022/10/29 02:47:07;;;;;;;19.77;7.35;;;;;;;22.83;100.00;98339.09;5014330;28;20382;-95
2022/10/29 02:49:33;;;;;;;19.52;7.82;;;;;;;23.96;100.00;98328.81;5011172;28;20128;-95
2022/10/29 02:51:58;;;;;;;22.88;7.10;;;;;;;23.84;100.00;98324.34;5013428;28;20034;-95
2022/10/29 02:54:24;;;;;;;23.55;7.50;;;;;;;23.39;100.00;98326.59;5010768;28;20053;-94
2022/10/29 02:56:49;;;;;;;20.98;7.50;;;;;;;23.26;100.00;98315.94;5009625;28;20084;-95
2022/10/29 02:59:14;;;;;;;19.33;6.47;;;;;;;24.03;100.00;98308.78;5012141;28;20025;-95
2022/10/29 03:01:41;;;;;;;21.73;8.02;;;;;;;24.13;100.00;98294.81;5024516;28;20112;-95
2022/10/29 03:04:06;;;;;;;27.05;7.50;;;;;;;24.78;100.00;98285.59;5008084;28;20038;-93
2022/10/29 03:06:32;;;;;;;17.85;6.50;;;;;;;25.17;100.00;98283.53;5025208;28;20084;-94
2022/10/29 03:08:57;;;;;;;21.58;6.68;;;;;;;25.34;100.00;98284.94;5013862;28;20033;-94
2022/10/29 03:11:22;;;;;;;16.45;7.03;;;;;;;24.86;100.00;98275.22;5012224;28;20535;-93
2022/10/29 03:13:48;;;;;;;17.40;5.70;;;;;;;23.12;100.00;98277.00;5027501;28;20037;-94
2022/10/29 03:16:14;;;;;;;16.55;6.97;;;;;;;24.61;100.00;98264.72;5010720;28;20524;-94
2022/10/29 03:18:39;;;;;;;17.85;6.35;;;;;;;25.07;100.00;98271.88;5008969;28;20037;-93
2022/10/29 03:21:05;;;;;;;19.00;6.43;;;;;;;24.12;100.00;98274.44;5011735;28;20033;-95
2022/10/29 03:23:30;;;;;;;23.23;6.78;;;;;;;24.00;100.00;98265.56;5012503;28;20115;-94
2022/10/29 03:25:56;;;;;;;17.65;5.93;;;;;;;23.97;100.00;98265.78;5012475;28;20401;-95
2022/10/29 03:28:23;;;;;;;20.30;6.07;;;;;;;24.70;100.00;98248.00;5008649;28;20112;-94
2022/10/29 03:30:48;;;;;;;19.67;4.78;;;;;;;24.11;100.00;98241.63;5014218;28;20097;-95
2022/10/29 03:33:14;;;;;;;12.63;4.95;;;;;;;25.02;100.00;98242.91;5012448;28;20417;-94
2022/10/29 03:35:40;;;;;;;15.93;4.40;;;;;;;25.27;100.00;98230.31;5010763;28;20042;-94
2022/10/29 03:38:05;;;;;;;17.13;4.43;;;;;;;25.14;99.50;98229.56;5024766;28;20038;-95
2022/10/29 03:40:31;;;;;;;20.10;4.72;;;;;;;24.93;100.00;98226.72;5006646;28;20034;-94
2022/10/29 03:42:56;;;;;;;12.38;4.50;;;;;;;24.01;100.00;98224.63;5007923;28;20083;-95
2022/10/29 03:45:22;;;;;;;13.13;4.03;;;;;;;24.15;100.00;98218.31;5024100;28;20451;-94
2022/10/29 03:47:47;;;;;;;14.10;3.58;;;;;;;24.60;100.00;98217.66;5011108;28;20030;-94
2022/10/29 03:50:12;;;;;;;13.65;3.40;;;;;;;24.70;100.00;98205.34;5010051;28;20044;-94
2022/10/29 03:52:38;;;;;;;13.98;3.63;;;;;;;24.73;99.83;98205.09;5008388;28;20845;-94
2022/10/29 03:55:04;;;;;;;13.13;3.15;;;;;;;24.72;100.00;98208.75;5011292;28;20038;-94
2022/10/29 03:57:30;;;;;;;15.13;3.30;;;;;;;24.70;100.00;98198.19;5010767;28;20026;-94
2022/10/29 03:59:56;;;;;;;10.63;3.10;;;;;;;24.70;100.00;98197.34;5010894;28;20516;-94
2022/10/29 04:02:21;;;;;;;10.57;2.35;;;;;;;25.39;99.00;98197.34;5010456;28;20053;-92
2022/10/29 04:04:47;;;;;;;10.52;2.60;;;;;;;25.70;97.63;98207.41;5009648;28;20030;-94
2022/10/29 04:07:12;;;;;;;12.00;2.70;;;;;;;25.07;99.77;98199.84;5010061;28;20049;-94
2022/10/29 04:09:38;;;;;;;12.65;3.10;;;;;;;24.49;100.00;98199.78;5004021;28;20053;-93
2022/10/29 04:12:03;;;;;;;11.07;2.30;;;;;;;26.73;93.07;98182.91;5008715;28;20088;-95
2022/10/29 04:14:29;;;;;;;12.45;3.20;;;;;;;26.51;91.86;98205.25;5021297;28;20037;-94
2022/10/29 04:16:54;;;;;;;10.98;2.80;;;;;;;27.02;91.30;98202.81;5010311;28;20041;-92
2022/10/29 04:19:19;;;;;;;12.43;2.75;;;;;;;25.97;92.73;98200.78;5008101;28;20026;-94
2022/10/29 04:21:45;;;;;;;15.27;3.25;;;;;;;25.05;95.65;98202.63;5011244;28;20091;-94
2022/10/29 04:24:10;;;;;;;9.68;2.85;;;;;;;25.09;95.67;98219.25;5011164;28;20037;-93
2022/10/29 04:26:37;;;;;;;13.18;2.70;;;;;;;25.56;95.37;98213.84;5010446;28;20026;-94
2022/10/29 04:29:02;;;;;;;13.48;3.00;;;;;;;25.34;95.89;98222.69;5011434;28;20037;-94
2022/10/29 04:31:28;;;;;;;12.50;3.08;;;;;;;25.03;97.04;98225.06;5009732;28;20677;-94
2022/10/29 04:33:53;;;;;;;13.13;2.95;;;;;;;24.06;100.00;98217.13;5015736;28;20036;-95
2022/10/29 04:36:18;;;;;;;13.57;2.75;;;;;;;23.48;100.00;98225.69;5010398;28;20450;-94
2022/10/29 04:38:46;;;;;;;14.80;3.65;;;;;;;22.76;100.00;98225.31;5027691;28;20041;-95
2022/10/29 04:41:11;;;;;;;16.15;4.22;;;;;;;23.05;100.00;98223.31;5005150;28;20026;-94
2022/10/29 04:43:37;;;;;;;15.18;4.50;;;;;;;23.65;100.00;98202.34;5009336;28;20036;-95
2022/10/29 04:46:02;;;;;;;13.90;4.57;;;;;;;23.80;100.00;98192.38;5008836;28;20482;-94
2022/10/29 04:48:28;;;;;;;23.45;5.43;;;;;;;24.39;100.00;98178.31;5001936;28;20033;-92
2022/10/29 04:50:54;;;;;;;15.55;4.93;;;;;;;24.36;100.00;98183.88;4999749;28;20446;-94
2022/10/29 04:53:19;;;;;;;15.95;5.70;;;;;;;25.84;98.07;98187.59;4997984;28;20116;-94
2022/10/29 04:55:45;;;;;;;25.40;6.43;;;;;;;24.76;100.00;98185.34;5000348;28;20121;-95
2022/10/29 04:58:13;;;;;;;18.02;6.38;;;;;;;23.96;100.00;98171.69;5002365;28;20129;-95
2022/10/29 05:00:38;;;;;;;18.40;6.18;;;;;;;25.01;100.00;98176.28;5004149;28;20030;-95
2022/10/29 05:03:04;;;;;;;22.38;6.80;;;;;;;26.09;96.59;98167.75;5013422;28;20041;-94
2022/10/29 05:05:29;;;;;;;28.92;6.75;;;;;;;25.59;97.42;98173.53;5002866;28;20034;-95
2022/10/29 05:07:59;;;;;;;21.38;7.20;;;;;;;25.01;99.66;98173.63;4997649;28;20500;-95
2022/10/29 05:10:27;;;;;;;20.40;7.03;;;;;;;25.76;97.35;98176.69;5001505;28;20085;-94
2022/10/29 05:13:01;;;;;;;20.48;7.38;;;;;;;24.85;99.33;98173.97;4997890;28;20034;-94
2022/10/29 05:15:27;;;;;;;24.17;7.38;;;;;;;23.74;100.00;98175.03;5002499;28;20026;-95
2022/10/29 05:17:53;;;;;;;23.58;7.70;;;;;;;23.89;100.00;98164.28;4999871;28;20025;-93
2022/10/29 05:20:19;;;;;;;20.38;7.20;;;;;;;23.78;100.00;98165.88;5016201;28;20581;-94
2022/10/29 05:22:44;;;;;;;22.20;7.22;;;;;;;23.41;100.00;98165.88;5016627;28;20545;-94
2022/10/29 05:25:10;;;;;;;24.52;6.75;;;;;;;23.98;100.00;98155.59;4994791;28;20034;-94
2022/10/29 05:27:35;;;;;;;22.33;6.82;;;;;;;23.80;100.00;98160.41;5002283;28;20120;-95
2022/10/29 05:30:01;;;;;;;18.48;6.40;;;;;;;23.51;100.00;98158.09;4997343;28;20147;-94
2022/10/29 05:32:29;;;;;;;22.02;7.07;;;;;;;24.33;100.00;98149.47;5004778;28;20038;-94
2022/10/29 05:34:55;;;;;;;32.72;7.43;;;;;;;23.21;100.00;98156.63;5001523;28;20033;-94
2022/10/29 05:37:23;;;;;;;22.75;7.57;;;;;;;22.86;100.00;98148.44;5007769;28;20526;-94
2022/10/29 05:42:23;;;;;;;81.32;10.15;;;;;;;23.18;100.00;98149.72;5008659;28;21390;-94
2022/10/29 05:44:49;;;;;;;110.18;11.15;;;;;;;23.25;100.00;98141.31;5012072;28;20120;-95
2022/10/29 05:47:15;;;;;;;84.32;10.85;;;;;;;23.47;100.00;98148.63;5014136;28;20021;-93
2022/10/29 05:49:40;;;;;;;166.23;15.35;;;;;;;24.51;100.00;98148.06;5009102;28;20041;-94
2022/10/29 05:52:06;;;;;;;139.23;13.50;;;;;;;24.34;100.00;98149.34;5009495;28;20100;-95
2022/10/29 05:54:31;;;;;;;88.25;13.82;;;;;;;24.07;100.00;98152.25;5013050;28;20038;-94
2022/10/29 05:56:58;;;;;;;129.60;13.02;;;;;;;24.55;100.00;98146.00;5009321;28;20048;-94
2022/10/29 05:59:26;;;;;;;76.82;11.73;;;;;;;25.20;100.00;98149.88;5014781;28;20533;-94
2022/10/29 06:01:52;;;;;;;88.18;11.50;;;;;;;24.56;100.00;98161.03;5007690;28;20046;-94
2022/10/29 06:04:17;;;;;;;106.38;12.38;;;;;;;25.54;99.86;98167.75;5010155;28;20402;-94
2022/10/29 06:06:43;;;;;;;60.83;10.73;;;;;;;26.00;97.72;98173.81;5003078;28;20033;-93
2022/10/29 06:09:10;;;;;;;96.80;11.38;;;;;;;24.98;100.00;98172.06;5004388;28;20037;-95
2022/10/29 06:11:36;;;;;;;123.45;12.80;;;;;;;24.56;100.00;98177.03;5005770;28;20026;-93
2022/10/29 06:14:01;;;;;;;31.35;9.20;;;;;;;24.85;100.00;98164.16;5006546;28;20038;-93
2022/10/29 06:16:26;;;;;;;76.10;9.55;;;;;;;24.32;100.00;98156.59;5005016;28;20831;-93
2022/10/29 06:18:52;;;;;;;115.55;13.88;;;;;;;24.64;100.00;98158.66;5002381;28;20946;-93
2022/10/29 06:21:17;;;;;;;103.10;10.90;;;;;;;24.20;100.00;98144.19;5003254;28;20025;-93
2022/10/29 06:23:44;;;;;;;101.30;11.38;;;;;;;24.17;100.00;98134.59;5004767;28;20053;-93
2022/10/29 06:26:09;;;;;;;185.65;16.25;;;;;;;22.74;100.00;98137.72;5003652;28;20041;-93
2022/10/29 06:28:34;;;;;;;66.18;11.23;;;;;;;24.39;100.00;98111.69;5004944;28;20057;-94
2022/10/29 06:31:00;;;;;;;121.35;11.85;;;;;;;23.72;100.00;98101.59;5001983;28;20068;-93
2022/10/29 06:33:25;;;;;;;119.10;12.70;;;;;;;24.39;100.00;98101.03;5005941;28;20057;-93
2022/10/29 06:35:52;;;;;;;63.88;9.40;;;;;;;23.08;100.00;98097.28;5020166;28;20053;-91
2022/10/29 06:38:17;;;;;;;40.97;7.70;;;;;;;22.73;100.00;98093.47;4997910;28;20053;-92
2022/10/29 06:40:50;;;;;;;91.25;9.90;;;;;;;22.57;100.00;98090.16;5000293;28;20704;-91
2022/10/29 06:43:15;;;;;;;51.95;8.90;;;;;;;23.12;100.00;98091.66;4996465;28;20041;-93
2022/10/29 06:45:41;;;;;;;129.00;10.35;;;;;;;24.00;100.00;98095.09;5003677;28;20084;-92
2022/10/29 06:48:06;;;;;;;129.50;12.25;;;;;;;23.44;100.00;98088.47;4989429;28;20030;-92
2022/10/29 06:50:33;;;;;;;164.75;13.35;;;;;;;22.82;100.00;98081.34;5000882;28;20111;-93
2022/10/29 06:53:04;;;;;;;219.88;17.38;;;;;;;22.69;100.00;98068.06;5003216;28;20036;-96
2022/10/29 06:55:29;;;;;;;161.55;15.30;;;;;;;22.42;100.00;98077.00;5001041;28;20128;-92
2022/10/29 06:58:03;;;;;;;213.10;16.23;;;;;;;23.83;100.00;98088.31;5020949;28;20138;-92
2022/10/29 07:00:28;;;;;;;;;;;;;;;23.75;100.00;98078.22;5006356;28;20030;-94
2022/10/29 07:02:55;;;;;;;198.40;14.32;;;;;;;23.65;100.00;98074.56;5009187;28;19928;-92
2022/10/29 07:05:21;;;;;;;366.25;24.75;;;;;;;22.84;100.00;98066.97;5005562;28;20831;-92
2022/10/29 07:07:46;;;;;;;326.13;20.23;;;;;;;23.16;100.00;98063.88;5010994;28;20124;-92
2022/10/29 07:10:12;;;;;;;369.08;23.90;;;;;;;21.95;100.00;98065.09;5010402;28;20409;-92
2022/10/29 07:12:39;;;;;;;384.25;23.48;;;;;;;20.38;100.00;98058.13;5005804;28;20038;-91
2022/10/29 07:15:05;;;;;;;141.30;11.02;;;;;;;22.86;100.00;98028.81;5001877;28;20802;-92
2022/10/29 07:17:30;;;;;;;137.85;13.38;;;;;;;21.64;100.00;98040.56;4999285;28;20083;-91
2022/10/29 07:19:56;;;;;;;28.10;7.25;;;;;;;22.76;100.00;98026.78;4994976;28;20037;-92
2022/10/29 07:22:21;;;;;;;271.13;19.35;;;;;;;22.01;100.00;98045.25;5017291;28;20041;-91
2022/10/29 07:24:47;;;;;;;132.25;11.55;;;;;;;21.95;100.00;98054.47;4997423;28;20026;-92
2022/10/29 07:27:12;;;;;;;342.95;22.40;;;;;;;21.94;100.00;98040.34;5006425;28;20040;-92
2022/10/29 07:29:37;;;;;;;296.58;18.85;;;;;;;21.51;100.00;98044.97;5011595;28;20423;-92
2022/10/29 07:32:03;;;;;;;229.00;16.67;;;;;;;21.44;100.00;98063.06;5010904;28;20111;-91
2022/10/29 07:34:28;;;;;;;394.95;24.00;;;;;;;21.84;100.00;98052.53;5009085;28;20049;-92
2022/10/29 07:36:54;;;;;;;156.70;10.77;;;;;;;23.14;100.00;98047.16;5007517;28;20049;-91
2022/10/29 07:39:19;;;;;;;132.32;11.18;;;;;;;22.86;100.00;98040.28;5003876;28;20862;-91
2022/10/29 07:41:44;;;;;;;161.48;12.50;;;;;;;21.64;100.00;98049.41;5000628;28;20121;-91
2022/10/29 07:44:10;;;;;;;168.27;14.25;;;;;;;21.59;100.00;98043.53;5005767;28;20476;-90
2022/10/29 07:46:36;;;;;;;135.57;11.95;;;;;;;21.76;100.00;98039.75;5003852;28;20049;-92
2022/10/29 07:49:01;;;;;;;159.95;12.35;;;;;;;22.05;100.00;98042.28;5025033;28;20053;-91
2022/10/29 07:51:27;;;;;;;256.30;18.25;;;;;;;22.80;100.00;98038.91;5020554;28;20422;-93
2022/10/29 07:53:52;;;;;;;223.73;15.18;;;;;;;22.70;100.00;98039.66;5005734;28;20152;-92
2022/10/29 07:56:17;;;;;;;258.52;18.10;;;;;;;22.32;100.00;98054.63;5006835;28;20101;-92
2022/10/29 07:58:43;;;;;;;216.88;13.85;;;;;;;21.30;100.00;98056.84;5004316;28;20306;-93
2022/10/29 08:01:08;;;;;;;173.13;11.80;;;;;;;22.17;100.00;98052.06;5005688;28;20081;-90
2022/10/29 08:03:34;;;;;;;201.73;13.32;;;;;;;22.33;100.00;98051.88;5003689;28;20112;-90
2022/10/29 08:05:59;;;;;;;239.60;16.00;;;;;;;21.71;100.00;98052.50;5010065;28;20033;-89
2022/10/29 08:08:24;;;;;;;147.13;11.63;;;;;;;22.11;100.00;98055.13;5000463;28;20041;-90
2022/10/29 08:10:50;;;;;;;242.00;14.88;;;;;;;21.14;100.00;98054.34;5003000;28;20033;-90
2022/10/29 08:13:15;;;;;;;183.27;12.30;;;;;;;20.59;100.00;98053.28;5017675;28;20531;-90
2022/10/29 08:15:45;;;;;;;82.30;7.20;;;;;;;20.82;100.00;98039.59;5003775;28;20025;-89
2022/10/29 08:18:15;;;;;;;158.93;10.60;;;;;;;20.90;100.00;98055.88;5005830;28;20030;-91
2022/10/29 08:20:41;;;;;;;168.50;13.10;;;;;;;21.06;100.00;98053.97;5014636;28;20038;-91
2022/10/29 08:23:07;;;;;;;46.25;5.07;;;;;;;21.20;100.00;98052.25;5015507;28;20055;-93
2022/10/29 08:25:32;;;;;;;94.50;7.70;;;;;;;20.48;100.00;98039.88;5000618;28;20088;-91
2022/10/29 08:28:03;;;;;;;49.90;5.45;;;;;;;20.40;100.00;98050.06;5002672;28;20450;-92
2022/10/29 08:30:30;;;;;;;28.25;4.22;;;;;;;20.89;100.00;98055.03;5002235;28;20048;-91
2022/10/29 08:32:55;;;;;;;15.95;3.20;;;;;;;20.14;100.00;98063.09;5021621;28;20032;-91
2022/10/29 08:35:21;;;;;;;37.40;4.65;;;;;;;21.40;100.00;98061.56;5001755;28;20033;-90
2022/10/29 08:37:47;;;;;;;53.63;5.43;;;;;;;20.85;100.00;98047.34;5004753;28;20026;-92
2022/10/29 08:40:30;;;;;;;52.05;5.03;;;;;;;21.56;100.00;98037.56;5005420;28;20029;-92
2022/10/29 08:43:32;;;;;;;48.35;5.43;;;;;;;20.72;100.00;98044.63;5017981;28;20151;-92
2022/10/29 08:45:59;;;;;;;64.25;6.35;;;;;;;20.20;100.00;98038.88;5013187;28;20452;-90
2022/10/29 08:48:36;;;;;;;150.95;11.20;;;;;;;21.46;100.00;98029.31;5005315;28;20036;-92
2022/10/29 08:51:13;;;;;;;331.35;21.20;;;;;;;21.90;100.00;98024.72;5004654;28;20490;-92
2022/10/29 08:53:45;;;;;;;358.80;24.10;;;;;;;21.75;100.00;98018.63;5019365;28;20041;-92
2022/10/29 08:56:34;;;;;;;405.83;27.58;;;;;;;21.93;100.00;98017.38;5010240;28;20029;-91
2022/10/29 08:59:39;;;;;;;441.30;29.77;;;;;;;22.13;100.00;98024.00;4996672;28;20038;-91
2022/10/29 09:02:17;;;;;;;448.55;30.10;;;;;;;21.57;100.00;98024.22;4926664;28;20121;-92
2022/10/29 09:04:43;;;;;;;446.13;27.27;;;;;;;22.34;100.00;98020.88;4920630;29;20571;-93
2022/10/29 09:07:18;;;;;;;429.60;30.17;;;;;;;22.11;100.00;98023.25;4940305;28;20030;-92
2022/10/29 09:10:18;;;;;;;501.08;36.60;;;;;;;22.21;100.00;98019.97;4923512;28;20034;-92
2022/10/29 09:13:00;;;;;;;509.73;38.13;;;;;;;23.06;100.00;98006.97;4928773;28;20046;-92
2022/10/29 09:15:46;;;;;;;446.50;27.88;;;;;;;22.98;100.00;98015.47;4925554;28;20215;-92
2022/10/29 09:18:23;;;;;;;454.10;30.67;;;;;;;22.68;100.00;98000.75;4949321;28;20106;-93
2022/10/29 09:21:07;;;;;;;491.08;30.73;;;;;;;23.29;100.00;98001.78;4939510;28;20039;-92
2022/10/29 09:23:41;;;;;;;;;;;;;;;23.57;100.00;98008.56;4943904;28;20045;-91
2022/10/29 09:26:24;;;;;;;408.42;27.65;;;;;;;23.43;100.00;98009.59;4946472;28;19918;-93
2022/10/29 09:29:23;;;;;;;450.20;27.50;;;;;;;23.98;100.00;98011.78;4951743;28;20071;-92
2022/10/29 09:31:58;;;;;;;483.33;33.03;;;;;;;23.85;100.00;97994.06;4932259;28;20169;-92
2022/10/29 09:34:39;;;;;;;451.17;31.10;;;;;;;23.58;100.00;97998.78;4943358;28;20039;-91
2022/10/29 09:37:13;;;;;;;405.73;29.75;;;;;;;23.59;100.00;97990.69;5011035;28;20053;-91
2022/10/29 09:39:41;;;;;;;462.17;32.55;;;;;;;23.98;100.00;97998.44;5006794;28;20039;-91
2022/10/29 09:42:13;;;;;;;465.25;31.30;;;;;;;23.75;100.00;98005.50;5001732;28;20121;-90
2022/10/29 09:44:48;;;;;;;467.60;34.20;;;;;;;24.05;100.00;98005.03;5002390;28;20038;-91
2022/10/29 09:47:27;;;;;;;451.25;32.33;;;;;;;24.92;100.00;97999.16;5002432;28;20144;-92
2022/10/29 09:50:31;;;;;;;527.15;38.45;;;;;;;23.58;100.00;97996.97;5001540;28;20096;-90
2022/10/29 09:52:58;;;;;;;535.88;38.38;;;;;;;23.45;100.00;98005.03;5003173;28;20543;-92
2022/10/29 09:55:26;;;;;;;491.40;35.72;;;;;;;24.39;100.00;97991.75;5005342;28;20034;-92
2022/10/29 09:57:55;;;;;;;566.13;39.80;;;;;;;23.79;100.00;97994.50;5006268;28;20105;-92
2022/10/29 10:00:24;;;;;;;566.03;40.08;;;;;;;23.44;100.00;97992.69;5009187;28;20038;-91
2022/10/29 10:03:00;;;;;;;601.90;47.88;;;;;;;24.38;100.00;97992.72;5001229;28;20516;-91
2022/10/29 10:05:28;;;;;;;562.33;41.88;;;;;;;23.95;100.00;97988.03;5004047;28;20030;-92
2022/10/29 10:08:13;;;;;;;605.83;44.55;;;;;;;23.89;100.00;97981.38;5010131;28;20057;-92
2022/10/29 10:10:52;;;;;;;656.25;46.35;;;;;;;23.63;100.00;97989.50;5005439;28;20042;-92
2022/10/29 10:13:23;;;;;;;594.78;44.20;;;;;;;23.22;100.00;97987.25;5005700;28;20034;-92
2022/10/29 10:15:52;;;;;;;517.58;38.03;;;;;;;23.93;100.00;97982.84;5011801;28;20041;-93
2022/10/29 10:18:19;;;;;;;461.60;36.53;;;;;;;23.91;100.00;97986.56;4999079;28;20022;-92
2022/10/29 10:20:48;;;;;;;469.30;36.08;;;;;;;23.21;100.00;97990.88;4999265;28;20033;-92
2022/10/29 10:23:44;;;;;;;428.90;33.33;;;;;;;22.82;100.00;97991.78;4994206;28;20029;-92
2022/10/29 10:26:42;;;;;;;392.88;31.10;;;;;;;23.63;100.00;97983.31;5004620;28;20060;-92
2022/10/29 10:29:13;;;;;;;414.80;30.55;;;;;;;23.74;100.00;97977.19;4962031;28;20061;-92
2022/10/29 10:31:43;;;;;;;437.92;33.67;;;;;;;23.66;100.00;97977.75;5010832;28;20045;-92
2022/10/29 10:34:16;;;;;;;397.70;31.08;;;;;;;24.25;100.00;97979.50;5016523;28;20029;-93
2022/10/29 10:36:47;;;;;;;373.40;28.08;;;;;;;23.38;100.00;97963.84;5004893;28;20137;-93
2022/10/29 10:39:36;;;;;;;323.55;25.50;;;;;;;24.50;100.00;97966.94;5019647;28;20041;-93
2022/10/29 10:42:14;;;;;;;158.70;16.73;;;;;;;22.45;100.00;97967.84;5015830;28;20048;-94
2022/10/29 10:44:53;;;;;;;283.90;22.33;;;;;;;21.31;100.00;97964.91;5007694;28;20030;-92
2022/10/29 10:47:22;;;;;;;346.33;24.85;;;;;;;20.96;100.00;97976.00;5003271;28;20037;-92
2022/10/29 10:49:48;;;;;;;318.73;21.80;;;;;;;21.40;100.00;97958.97;5011191;28;20108;-92
2022/10/29 10:52:22;;;;;;;285.55;22.52;;;;;;;21.77;100.00;97959.19;5011148;28;20164;-92
2022/10/29 10:54:58;;;;;;;331.63;23.25;;;;;;;21.95;100.00;97953.59;5008530;28;20025;-93
2022/10/29 10:57:26;;;;;;;301.73;24.83;;;;;;;22.64;100.00;97940.81;5004997;28;20091;-92
2022/10/29 11:00:05;;;;;;;325.95;26.80;;;;;;;22.90;100.00;97942.56;5003542;28;20030;-93
2022/10/29 11:02:50;;;;;;;299.02;22.38;;;;;;;23.01;100.00;97937.28;5007785;28;20137;-93
2022/10/29 11:05:20;;;;;;;236.45;20.92;;;;;;;23.43;100.00;97937.75;5013597;28;20048;-92
2022/10/29 11:08:15;;;;;;;355.42;27.85;;;;;;;23.89;100.00;97919.28;5005716;28;20037;-92
2022/10/29 11:10:59;;;;;;;333.17;26.40;;;;;;;24.25;100.00;97920.06;5011618;28;20041;-91
2022/10/29 11:13:29;;;;;;;196.77;19.67;;;;;;;25.05;100.00;97916.31;5006898;28;20569;-93
2022/10/29 11:16:00;;;;;;;234.82;21.48;;;;;;;24.10;100.00;97920.25;5010459;28;20144;-93
2022/10/29 11:18:47;;;;;;;269.80;22.85;;;;;;;24.82;100.00;97916.38;5007617;28;20033;-92
2022/10/29 11:21:25;;;;;;;217.10;22.65;;;;;;;24.82;100.00;97910.22;5017037;28;20029;-93
2022/10/29 11:23:59;;;;;;;231.88;24.83;;;;;;;24.78;100.00;97914.09;5003718;28;20657;-93
2022/10/29 11:26:39;;;;;;;239.13;22.67;;;;;;;25.20;100.00;97908.88;5000330;28;20030;-89
2022/10/29 11:29:37;;;;;;;246.13;24.90;;;;;;;25.46;100.00;97901.38;5021027;28;20040;-90